Spencer, Ohio
Current Conditions -  °F | °C
As of 9:53 AM on Saturday 20 Dec 2014 (Local Time) from KLPR Reporting Station
Overcast Overcast  
Wind Chill: 29°   Ceiling: 2600
Heat Index: 29°   Visibility: 10mi
Dew Point: 20°   Wind: 3mph
Humidity: 69%   Direction: 220°SW
Pressure: 30.31"   Gusts: NA
Location:  41.1°N, 82.12°W
Report Text: KLPR 201453Z AUTO 22003KT 10SM OVC026 M02/M07 A3031 RMK AO2 SLP273 T10171067 53006 TSNO
Loading
Personal Weather Stations






























Interactive Weather Map New forecast layout! Learn more

10-Day Weather Forecast

Advertisements
Track Severe Weather on mobile